sensor_id;sensor_type;location;lat;lon;timestamp;pressure;altitude;pressure_sealevel;temperature;humidity
43683;BME280;29285;52.128;21.060;2023-03-20T07:46:43;100232.95;;;11.21;69.53
43683;BME280;29285;52.128;21.060;2023-03-20T07:51:47;100238.39;;;11.44;69.64
43683;BME280;29285;52.128;21.060;2023-03-20T07:56:48;100239.52;;;11.73;69.95
43683;BME280;29285;52.128;21.060;2023-03-20T08:01:50;100236.41;;;11.95;70.01
43683;BME280;29285;52.128;21.060;2023-03-20T08:06:51;100238.23;;;12.14;69.97
43683;BME280;29285;52.128;21.060;2023-03-20T08:11:52;100234.85;;;12.32;69.93
43683;BME280;29285;52.128;21.060;2023-03-20T08:16:53;100232.16;;;12.56;69.95
43683;BME280;29285;52.128;21.060;2023-03-20T08:21:54;100234.90;;;12.72;69.95
43683;BME280;29285;52.128;21.060;2023-03-20T08:26:55;100229.93;;;12.82;69.80
43683;BME280;29285;52.128;21.060;2023-03-20T08:31:56;100230.94;;;12.96;69.57
43683;BME280;29285;52.128;21.060;2023-03-20T08:36:57;100224.82;;;13.10;69.41
43683;BME280;29285;52.128;21.060;2023-03-20T08:41:58;100224.29;;;13.22;69.42
43683;BME280;29285;52.128;21.060;2023-03-20T08:46:59;100228.33;;;13.27;69.10
43683;BME280;29285;52.128;21.060;2023-03-20T08:52:00;100229.73;;;13.27;68.84
43683;BME280;29285;52.128;21.060;2023-03-20T08:57:01;100229.23;;;13.33;68.61
43683;BME280;29285;52.128;21.060;2023-03-20T09:02:02;100230.67;;;13.43;68.58
43683;BME280;29285;52.128;21.060;2023-03-20T09:07:03;100233.38;;;13.53;68.40
43683;BME280;29285;52.128;21.060;2023-03-20T09:12:04;100236.48;;;13.65;68.16
43683;BME280;29285;52.128;21.060;2023-03-20T09:17:05;100238.11;;;13.70;67.83
43683;BME280;29285;52.128;21.060;2023-03-20T09:22:06;100238.21;;;13.77;67.23
43683;BME280;29285;52.128;21.060;2023-03-20T09:27:08;100241.16;;;13.83;66.81
43683;BME280;29285;52.128;21.060;2023-03-20T09:32:12;100234.34;;;13.90;66.36
43683;BME280;29285;52.128;21.060;2023-03-20T09:37:13;100229.17;;;14.04;66.21
43683;BME280;29285;52.128;21.060;2023-03-20T09:57:51;100211.84;;;14.44;65.14
43683;BME280;29285;52.128;21.060;2023-03-20T10:02:51;100216.36;;;14.54;64.90
43683;BME280;29285;52.128;21.060;2023-03-20T10:07:57;100214.83;;;14.58;64.37
43683;BME280;29285;52.128;21.060;2023-03-20T10:13:07;100212.88;;;14.64;63.83
43683;BME280;29285;52.128;21.060;2023-03-20T10:18:15;100208.88;;;14.95;64.11
43683;BME280;29285;52.128;21.060;2023-03-20T10:23:25;100210.40;;;15.15;63.76
43683;BME280;29285;52.128;21.060;2023-03-20T10:33:52;100204.39;;;15.31;62.84
43683;BME280;29285;52.128;21.060;2023-03-20T10:38:59;100203.86;;;15.22;61.83
43683;BME280;29285;52.128;21.060;2023-03-20T10:44:05;100198.37;;;15.38;61.70
43683;BME280;29285;52.128;21.060;2023-03-20T10:49:15;100193.95;;;15.62;61.81
43683;BME280;29285;52.128;21.060;2023-03-20T10:59:27;100200.18;;;16.13;61.68
43683;BME280;29285;52.128;21.060;2023-03-20T11:04:32;100211.92;;;16.04;60.78
43683;BME280;29285;52.128;21.060;2023-03-20T11:09:33;100210.52;;;15.90;60.04
43683;BME280;29285;52.128;21.060;2023-03-20T11:14:36;100208.90;;;15.78;59.68
43683;BME280;29285;52.128;21.060;2023-03-20T11:19:39;100207.09;;;15.62;59.31
43683;BME280;29285;52.128;21.060;2023-03-20T11:24:41;100204.80;;;15.57;59.42
43683;BME280;29285;52.128;21.060;2023-03-20T11:29:47;100207.57;;;15.49;59.33
43683;BME280;29285;52.128;21.060;2023-03-20T11:34:49;100202.13;;;15.40;59.23
43683;BME280;29285;52.128;21.060;2023-03-20T11:40:09;100194.36;;;15.29;59.02
43683;BME280;29285;52.128;21.060;2023-03-20T11:45:17;100188.88;;;15.16;58.90
43683;BME280;29285;52.128;21.060;2023-03-20T11:55:28;100182.30;;;15.19;59.04
43683;BME280;29285;52.128;21.060;2023-03-20T12:00:48;100178.37;;;15.03;58.80
43683;BME280;29285;52.128;21.060;2023-03-20T12:05:51;100173.27;;;14.89;58.77
43683;BME280;29285;52.128;21.060;2023-03-20T12:11:39;100173.87;;;14.82;58.82
43683;BME280;29285;52.128;21.060;2023-03-20T12:16:14;100170.79;;;14.75;58.97
43683;BME280;29285;52.128;21.060;2023-03-20T12:21:22;100163.52;;;14.73;59.18
43683;BME280;29285;52.128;21.060;2023-03-20T12:26:27;100167.10;;;14.76;59.46
43683;BME280;29285;52.128;21.060;2023-03-20T12:36:43;100160.19;;;14.73;59.90
43683;BME280;29285;52.128;21.060;2023-03-20T12:46:55;100161.94;;;14.58;59.78
43683;BME280;29285;52.128;21.060;2023-03-20T12:52:02;100161.45;;;14.52;59.72
43683;BME280;29285;52.128;21.060;2023-03-20T12:57:17;100158.06;;;14.64;59.74
43683;BME280;29285;52.128;21.060;2023-03-20T13:02:25;100156.63;;;14.60;59.66
43683;BME280;29285;52.128;21.060;2023-03-20T13:07:48;100159.48;;;14.54;59.49
43683;BME280;29285;52.128;21.060;2023-03-20T13:12:59;100155.77;;;14.40;59.19
43683;BME280;29285;52.128;21.060;2023-03-20T13:28:44;100142.60;;;14.17;60.21
43683;BME280;29285;52.128;21.060;2023-03-20T13:39:00;100136.89;;;14.15;61.52
43683;BME280;29285;52.128;21.060;2023-03-20T13:44:04;100141.95;;;14.15;62.29
43683;BME280;29285;52.128;21.060;2023-03-20T13:49:15;100140.33;;;14.06;62.88
43683;BME280;29285;52.128;21.060;2023-03-20T14:04:40;100140.41;;;13.77;65.94
43683;BME280;29285;52.128;21.060;2023-03-20T14:09:41;100134.16;;;13.71;67.05
43683;BME280;29285;52.128;21.060;2023-03-20T14:14:45;100133.31;;;13.70;68.13
43683;BME280;29285;52.128;21.060;2023-03-20T14:19:48;100136.58;;;13.66;69.26
43683;BME280;29285;52.128;21.060;2023-03-20T14:24:55;100136.06;;;13.66;70.33
43683;BME280;29285;52.128;21.060;2023-03-20T14:29:56;100140.60;;;13.71;71.52
43683;BME280;29285;52.128;21.060;2023-03-20T14:35:22;100136.89;;;13.73;72.57
43683;BME280;29285;52.128;21.060;2023-03-20T14:40:23;100142.11;;;13.68;73.36
43683;BME280;29285;52.128;21.060;2023-03-20T14:45:29;100143.29;;;13.63;74.24
43683;BME280;29285;52.128;21.060;2023-03-20T14:50:52;100145.80;;;13.61;75.25
43683;BME280;29285;52.128;21.060;2023-03-20T15:00:59;100143.70;;;13.56;76.90
43683;BME280;29285;52.128;21.060;2023-03-20T15:06:03;100142.29;;;13.50;77.86
43683;BME280;29285;52.128;21.060;2023-03-20T15:11:06;100142.40;;;13.46;78.79
43683;BME280;29285;52.128;21.060;2023-03-20T15:16:12;100142.37;;;13.41;79.78
43683;BME280;29285;52.128;21.060;2023-03-20T15:21:18;100141.73;;;13.34;80.84
43683;BME280;29285;52.128;21.060;2023-03-20T15:26:19;100144.17;;;13.28;81.57
43683;BME280;29285;52.128;21.060;2023-03-20T15:31:29;100144.84;;;13.18;82.23
43683;BME280;29285;52.128;21.060;2023-03-20T15:36:32;100147.08;;;13.06;82.99
43683;BME280;29285;52.128;21.060;2023-03-20T15:41:36;100147.14;;;12.98;83.55
43683;BME280;29285;52.128;21.060;2023-03-20T15:46:37;100156.55;;;12.98;84.27
43683;BME280;29285;52.128;21.060;2023-03-20T15:51:38;100157.27;;;12.96;84.91
43683;BME280;29285;52.128;21.060;2023-03-20T15:56:39;100160.37;;;12.92;85.55
43683;BME280;29285;52.128;21.060;2023-03-20T16:01:45;100164.64;;;12.89;86.19
43683;BME280;29285;52.128;21.060;2023-03-20T16:06:57;100164.61;;;12.84;86.65
43683;BME280;29285;52.128;21.060;2023-03-20T16:11:59;100169.77;;;12.79;87.03
43683;BME280;29285;52.128;21.060;2023-03-20T16:17:01;100175.77;;;12.76;87.72
43683;BME280;29285;52.128;21.060;2023-03-20T16:27:28;100169.63;;;12.65;88.64
43683;BME280;29285;52.128;21.060;2023-03-20T16:32:39;100159.36;;;12.65;89.18
43683;BME280;29285;52.128;21.060;2023-03-20T16:37:42;100152.20;;;12.66;89.72
43683;BME280;29285;52.128;21.060;2023-03-20T16:42:46;100152.17;;;12.67;90.26
43683;BME280;29285;52.128;21.060;2023-03-20T16:47:47;100152.41;;;12.65;90.83
43683;BME280;29285;52.128;21.060;2023-03-20T16:52:56;100151.26;;;12.63;91.13
43683;BME280;29285;52.128;21.060;2023-03-20T16:57:58;100148.92;;;12.58;91.48
43683;BME280;29285;52.128;21.060;2023-03-20T17:03:12;100155.88;;;12.53;92.04
43683;BME280;29285;52.128;21.060;2023-03-20T17:08:15;100161.19;;;12.49;92.47
43683;BME280;29285;52.128;21.060;2023-03-20T17:13:16;100166.69;;;12.38;92.70
43683;BME280;29285;52.128;21.060;2023-03-20T17:18:17;100175.45;;;12.29;93.27
43683;BME280;29285;52.128;21.060;2023-03-20T17:23:19;100183.14;;;12.21;93.58
43683;BME280;29285;52.128;21.060;2023-03-20T17:28:22;100178.95;;;12.15;94.12
43683;BME280;29285;52.128;21.060;2023-03-20T17:33:23;100170.25;;;12.15;94.80
43683;BME280;29285;52.128;21.060;2023-03-20T17:38:24;100171.75;;;12.17;95.40
43683;BME280;29285;52.128;21.060;2023-03-20T17:43:25;100176.86;;;12.07;95.84
43683;BME280;29285;52.128;21.060;2023-03-20T17:48:26;100173.02;;;11.99;96.06
43683;BME280;29285;52.128;21.060;2023-03-20T17:53:26;100171.84;;;11.90;96.38
43683;BME280;29285;52.128;21.060;2023-03-20T17:58:30;100169.20;;;11.78;96.67
43683;BME280;29285;52.128;21.060;2023-03-20T18:03:31;100166.08;;;11.62;97.02
43683;BME280;29285;52.128;21.060;2023-03-20T18:08:32;100165.61;;;11.51;97.16
43683;BME280;29285;52.128;21.060;2023-03-20T18:13:33;100161.20;;;11.39;97.63
43683;BME280;29285;52.128;21.060;2023-03-20T18:18:34;100165.06;;;11.30;98.10
43683;BME280;29285;52.128;21.060;2023-03-20T18:23:35;100173.13;;;11.34;98.83
43683;BME280;29285;52.128;21.060;2023-03-20T18:28:36;100173.50;;;11.33;99.46
43683;BME280;29285;52.128;21.060;2023-03-20T18:33:37;100178.45;;;11.20;99.63
43683;BME280;29285;52.128;21.060;2023-03-20T18:38:38;100178.52;;;11.09;99.81
43683;BME280;29285;52.128;21.060;2023-03-20T18:43:39;100173.17;;;11.07;99.95
43683;BME280;29285;52.128;21.060;2023-03-20T18:48:41;100176.35;;;11.04;100.00
43683;BME280;29285;52.128;21.060;2023-03-20T18:53:42;100179.79;;;11.07;100.00
43683;BME280;29285;52.128;21.060;2023-03-20T18:58:44;100175.47;;;11.05;100.00
43683;BME280;29285;52.128;21.060;2023-03-20T19:03:45;100175.63;;;10.97;100.00
43683;BME280;29285;52.128;21.060;2023-03-20T19:08:46;100174.11;;;10.94;100.00
43683;BME280;29285;52.128;21.060;2023-03-20T19:13:48;100171.96;;;10.89;100.00
43683;BME280;29285;52.128;21.060;2023-03-20T19:18:51;100173.15;;;10.73;100.00
43683;BME280;29285;52.128;21.060;2023-03-20T19:23:56;100173.52;;;10.63;100.00
43683;BME280;29285;52.128;21.060;2023-03-20T19:28:58;100174.45;;;10.49;100.00
43683;BME280;29285;52.128;21.060;2023-03-20T19:34:00;100174.77;;;10.40;100.00
43683;BME280;29285;52.128;21.060;2023-03-20T19:39:03;100174.92;;;10.40;100.00
43683;BME280;29285;52.128;21.060;2023-03-20T19:44:04;100176.77;;;10.44;100.00
43683;BME280;29285;52.128;21.060;2023-03-20T19:49:07;100175.50;;;10.58;100.00
43683;BME280;29285;52.128;21.060;2023-03-20T19:54:14;100173.38;;;10.60;100.00
43683;BME280;29285;52.128;21.060;2023-03-20T19:59:15;100177.92;;;10.49;100.00
43683;BME280;29285;52.128;21.060;2023-03-20T20:04:16;100177.28;;;10.46;100.00
43683;BME280;29285;52.128;21.060;2023-03-20T20:09:17;100175.30;;;10.39;100.00
43683;BME280;29285;52.128;21.060;2023-03-20T20:14:18;100171.92;;;10.34;100.00
43683;BME280;29285;52.128;21.060;2023-03-20T20:19:19;100166.13;;;10.29;100.00
43683;BME280;29285;52.128;21.060;2023-03-20T20:24:20;100168.80;;;10.33;100.00
43683;BME280;29285;52.128;21.060;2023-03-20T20:29:22;100181.77;;;10.47;100.00
43683;BME280;29285;52.128;21.060;2023-03-20T20:34:24;100190.45;;;10.56;100.00
43683;BME280;29285;52.128;21.060;2023-03-20T20:39:25;100193.42;;;10.56;100.00
43683;BME280;29285;52.128;21.060;2023-03-20T20:44:26;100190.14;;;10.54;100.00
43683;BME280;29285;52.128;21.060;2023-03-20T20:49:27;100193.52;;;10.58;100.00
43683;BME280;29285;52.128;21.060;2023-03-20T20:54:28;100192.65;;;10.59;100.00
43683;BME280;29285;52.128;21.060;2023-03-20T20:59:29;100196.33;;;10.57;100.00
43683;BME280;29285;52.128;21.060;2023-03-20T21:04:30;100196.92;;;10.53;100.00
43683;BME280;29285;52.128;21.060;2023-03-20T21:09:31;100197.77;;;10.44;100.00
43683;BME280;29285;52.128;21.060;2023-03-20T21:14:33;100197.55;;;10.36;100.00
43683;BME280;29285;52.128;21.060;2023-03-20T21:19:40;100196.98;;;10.28;100.00
43683;BME280;29285;52.128;21.060;2023-03-20T21:24:42;100198.59;;;10.26;100.00
43683;BME280;29285;52.128;21.060;2023-03-20T21:29:43;100198.56;;;10.27;100.00
43683;BME280;29285;52.128;21.060;2023-03-20T21:34:44;100196.42;;;10.31;100.00
43683;BME280;29285;52.128;21.060;2023-03-20T21:39:48;100201.90;;;10.35;100.00
43683;BME280;29285;52.128;21.060;2023-03-20T21:44:49;100200.56;;;10.32;100.00
43683;BME280;29285;52.128;21.060;2023-03-20T21:49:50;100196.80;;;10.29;100.00
43683;BME280;29285;52.128;21.060;2023-03-20T21:54:52;100199.14;;;10.25;100.00
43683;BME280;29285;52.128;21.060;2023-03-20T21:59:53;100193.25;;;10.24;100.00
43683;BME280;29285;52.128;21.060;2023-03-20T22:04:55;100191.30;;;10.26;100.00
43683;BME280;29285;52.128;21.060;2023-03-20T22:09:56;100191.23;;;10.30;100.00
43683;BME280;29285;52.128;21.060;2023-03-20T22:14:58;100188.52;;;10.26;100.00
43683;BME280;29285;52.128;21.060;2023-03-20T22:19:59;100188.45;;;10.19;100.00
43683;BME280;29285;52.128;21.060;2023-03-20T22:25:00;100190.44;;;10.15;100.00
43683;BME280;29285;52.128;21.060;2023-03-20T22:30:02;100188.28;;;10.19;100.00
43683;BME280;29285;52.128;21.060;2023-03-20T22:35:03;100185.94;;;10.14;100.00
43683;BME280;29285;52.128;21.060;2023-03-20T22:40:04;100186.50;;;10.11;100.00
43683;BME280;29285;52.128;21.060;2023-03-20T22:45:07;100189.80;;;10.11;100.00
43683;BME280;29285;52.128;21.060;2023-03-20T22:50:08;100193.20;;;10.05;100.00
43683;BME280;29285;52.128;21.060;2023-03-20T22:55:09;100193.79;;;10.00;100.00
43683;BME280;29285;52.128;21.060;2023-03-20T23:00:11;100192.61;;;9.98;100.00
43683;BME280;29285;52.128;21.060;2023-03-20T23:05:12;100193.70;;;9.96;100.00
43683;BME280;29285;52.128;21.060;2023-03-20T23:10:13;100196.21;;;9.89;100.00
43683;BME280;29285;52.128;21.060;2023-03-20T23:15:14;100203.58;;;9.85;100.00
43683;BME280;29285;52.128;21.060;2023-03-20T23:20:15;100202.58;;;9.80;100.00
43683;BME280;29285;52.128;21.060;2023-03-20T23:25:16;100202.29;;;9.77;100.00
43683;BME280;29285;52.128;21.060;2023-03-20T23:30:17;100199.23;;;9.73;100.00
43683;BME280;29285;52.128;21.060;2023-03-20T23:35:19;100196.86;;;9.70;100.00
43683;BME280;29285;52.128;21.060;2023-03-20T23:40:20;100197.09;;;9.65;100.00
43683;BME280;29285;52.128;21.060;2023-03-20T23:45:21;100196.62;;;9.61;100.00
43683;BME280;29285;52.128;21.060;2023-03-20T23:50:22;100194.95;;;9.58;100.00
43683;BME280;29285;52.128;21.060;2023-03-20T23:55:23;100193.89;;;9.59;100.00
